sensor_id;sensor_type;location;lat;lon;timestamp;P1;durP1;ratioP1;P2;durP2;ratioP2
2650;SDS011;1335;48.180;16.342;2022-11-27T01:24:57;13.77;;;10.90;;
2650;SDS011;1335;48.180;16.342;2022-11-27T01:27:24;14.17;;;11.10;;
2650;SDS011;1335;48.180;16.342;2022-11-27T01:29:51;14.97;;;10.70;;
2650;SDS011;1335;48.180;16.342;2022-11-27T01:32:18;15.80;;;11.30;;
2650;SDS011;1335;48.180;16.342;2022-11-27T01:34:45;13.77;;;11.20;;
2650;SDS011;1335;48.180;16.342;2022-11-27T01:42:20;24.87;;;13.00;;
2650;SDS011;1335;48.180;16.342;2022-11-27T01:44:49;12.97;;;10.57;;
2650;SDS011;1335;48.180;16.342;2022-11-27T01:47:26;17.13;;;11.00;;
2650;SDS011;1335;48.180;16.342;2022-11-27T01:50:01;14.40;;;11.00;;
2650;SDS011;1335;48.180;16.342;2022-11-27T01:52:34;13.83;;;11.00;;
2650;SDS011;1335;48.180;16.342;2022-11-27T01:55:05;12.13;;;10.80;;
2650;SDS011;1335;48.180;16.342;2022-11-27T01:57:38;13.20;;;11.53;;
2650;SDS011;1335;48.180;16.342;2022-11-27T02:05:20;15.80;;;10.40;;
2650;SDS011;1335;48.180;16.342;2022-11-27T02:07:48;13.20;;;10.00;;
2650;SDS011;1335;48.180;16.342;2022-11-27T02:10:18;14.63;;;10.57;;
2650;SDS011;1335;48.180;16.342;2022-11-27T02:12:54;14.70;;;11.40;;
2650;SDS011;1335;48.180;16.342;2022-11-27T02:15:29;13.83;;;10.77;;
2650;SDS011;1335;48.180;16.342;2022-11-27T02:18:03;13.70;;;11.00;;
2650;SDS011;1335;48.180;16.342;2022-11-27T02:20:39;15.67;;;12.30;;
2650;SDS011;1335;48.180;16.342;2022-11-27T02:23:26;14.93;;;11.00;;
2650;SDS011;1335;48.180;16.342;2022-11-27T02:29:15;14.60;;;11.60;;
2650;SDS011;1335;48.180;16.342;2022-11-27T02:31:46;17.60;;;11.70;;
2650;SDS011;1335;48.180;16.342;2022-11-27T02:34:22;14.90;;;12.30;;
2650;SDS011;1335;48.180;16.342;2022-11-27T02:36:55;14.90;;;12.13;;
2650;SDS011;1335;48.180;16.342;2022-11-27T02:39:27;16.67;;;11.87;;
2650;SDS011;1335;48.180;16.342;2022-11-27T02:42:00;14.40;;;11.90;;
2650;SDS011;1335;48.180;16.342;2022-11-27T02:44:38;14.77;;;11.30;;
2650;SDS011;1335;48.180;16.342;2022-11-27T02:47:09;16.97;;;12.30;;
2650;SDS011;1335;48.180;16.342;2022-11-27T02:49:39;14.90;;;12.20;;
2650;SDS011;1335;48.180;16.342;2022-11-27T02:52:08;15.30;;;11.57;;
2650;SDS011;1335;48.180;16.342;2022-11-27T02:54:38;15.70;;;13.03;;
2650;SDS011;1335;48.180;16.342;2022-11-27T02:57:07;17.80;;;12.83;;
2650;SDS011;1335;48.180;16.342;2022-11-27T02:59:38;19.23;;;12.90;;
2650;SDS011;1335;48.180;16.342;2022-11-27T03:02:10;16.67;;;13.47;;
2650;SDS011;1335;48.180;16.342;2022-11-27T03:04:45;16.10;;;12.83;;
2650;SDS011;1335;48.180;16.342;2022-11-27T03:07:17;16.10;;;13.17;;
2650;SDS011;1335;48.180;16.342;2022-11-27T03:09:54;21.47;;;13.57;;
2650;SDS011;1335;48.180;16.342;2022-11-27T03:12:24;17.57;;;13.50;;
2650;SDS011;1335;48.180;16.342;2022-11-27T03:14:53;19.50;;;13.73;;
2650;SDS011;1335;48.180;16.342;2022-11-27T03:17:25;21.87;;;14.87;;
2650;SDS011;1335;48.180;16.342;2022-11-27T03:20:07;21.17;;;13.93;;
2650;SDS011;1335;48.180;16.342;2022-11-27T03:22:39;21.73;;;14.77;;
2650;SDS011;1335;48.180;16.342;2022-11-27T03:25:06;19.30;;;14.00;;
2650;SDS011;1335;48.180;16.342;2022-11-27T03:27:34;20.17;;;13.83;;
2650;SDS011;1335;48.180;16.342;2022-11-27T03:30:08;20.23;;;14.33;;
2650;SDS011;1335;48.180;16.342;2022-11-27T03:32:37;21.80;;;15.20;;
2650;SDS011;1335;48.180;16.342;2022-11-27T03:35:04;20.13;;;15.67;;
2650;SDS011;1335;48.180;16.342;2022-11-27T03:37:35;19.20;;;14.10;;
2650;SDS011;1335;48.180;16.342;2022-11-27T03:40:04;20.33;;;15.27;;
2650;SDS011;1335;48.180;16.342;2022-11-27T03:42:33;19.80;;;15.43;;
2650;SDS011;1335;48.180;16.342;2022-11-27T03:45:16;22.30;;;13.77;;
2650;SDS011;1335;48.180;16.342;2022-11-27T03:47:57;18.50;;;14.27;;
2650;SDS011;1335;48.180;16.342;2022-11-27T03:50:34;17.53;;;13.60;;
2650;SDS011;1335;48.180;16.342;2022-11-27T03:53:14;25.43;;;15.40;;
2650;SDS011;1335;48.180;16.342;2022-11-27T03:55:48;27.77;;;16.90;;
2650;SDS011;1335;48.180;16.342;2022-11-27T03:58:22;27.03;;;15.67;;
2650;SDS011;1335;48.180;16.342;2022-11-27T04:08:49;23.10;;;15.87;;
2650;SDS011;1335;48.180;16.342;2022-11-27T04:11:16;24.80;;;16.60;;
2650;SDS011;1335;48.180;16.342;2022-11-27T04:13:43;26.57;;;16.93;;
2650;SDS011;1335;48.180;16.342;2022-11-27T04:16:11;23.20;;;17.33;;
2650;SDS011;1335;48.180;16.342;2022-11-27T04:18:39;24.83;;;17.17;;
2650;SDS011;1335;48.180;16.342;2022-11-27T04:21:07;23.57;;;16.03;;
2650;SDS011;1335;48.180;16.342;2022-11-27T04:23:34;21.93;;;15.73;;
2650;SDS011;1335;48.180;16.342;2022-11-27T04:26:04;22.20;;;14.50;;
2650;SDS011;1335;48.180;16.342;2022-11-27T04:28:33;22.00;;;13.33;;
2650;SDS011;1335;48.180;16.342;2022-11-27T04:31:01;18.00;;;13.33;;
2650;SDS011;1335;48.180;16.342;2022-11-27T04:33:28;21.47;;;14.20;;
2650;SDS011;1335;48.180;16.342;2022-11-27T04:35:55;18.60;;;13.97;;
2650;SDS011;1335;48.180;16.342;2022-11-27T04:38:22;21.17;;;13.23;;
2650;SDS011;1335;48.180;16.342;2022-11-27T04:40:57;20.43;;;13.90;;
2650;SDS011;1335;48.180;16.342;2022-11-27T04:43:26;23.77;;;14.70;;
2650;SDS011;1335;48.180;16.342;2022-11-27T04:45:53;21.00;;;13.97;;
2650;SDS011;1335;48.180;16.342;2022-11-27T04:48:20;19.77;;;14.03;;
2650;SDS011;1335;48.180;16.342;2022-11-27T04:55:58;22.20;;;14.40;;
2650;SDS011;1335;48.180;16.342;2022-11-27T04:58:26;26.87;;;16.40;;
2650;SDS011;1335;48.180;16.342;2022-11-27T23:32:13;57.47;;;31.07;;
2650;SDS011;1335;48.180;16.342;2022-11-27T23:34:40;51.33;;;29.70;;
2650;SDS011;1335;48.180;16.342;2022-11-27T23:37:07;54.30;;;30.97;;
2650;SDS011;1335;48.180;16.342;2022-11-27T23:40:25;54.40;;;30.80;;
2650;SDS011;1335;48.180;16.342;2022-11-27T23:42:53;54.03;;;32.17;;
2650;SDS011;1335;48.180;16.342;2022-11-27T23:45:21;54.43;;;31.90;;
2650;SDS011;1335;48.180;16.342;2022-11-27T23:47:50;53.67;;;30.63;;
2650;SDS011;1335;48.180;16.342;2022-11-27T23:50:40;47.90;;;30.20;;
2650;SDS011;1335;48.180;16.342;2022-11-27T23:53:09;46.30;;;29.33;;
2650;SDS011;1335;48.180;16.342;2022-11-27T23:56:11;50.40;;;28.37;;
2650;SDS011;1335;48.180;16.342;2022-11-27T23:58:40;50.33;;;30.63;;
